createdAt,value
2023-03-12T00:00:40.096Z,0.80
2023-03-12T00:05:44.616Z,1.10
2023-03-12T00:10:46.397Z,1.10
2023-03-12T00:15:48.813Z,1.00
2023-03-12T00:20:55.847Z,0.60
2023-03-12T00:26:01.833Z,0.90
2023-03-12T00:31:13.814Z,0.80
2023-03-12T00:36:17.462Z,0.97
2023-03-12T00:41:19.935Z,1.00
2023-03-12T00:46:22.676Z,0.50
2023-03-12T00:51:26.142Z,0.70
2023-03-12T00:56:28.200Z,1.10
2023-03-12T01:01:30.583Z,1.03
2023-03-12T01:06:34.571Z,0.60
2023-03-12T01:11:38.628Z,0.97
2023-03-12T01:16:41.058Z,0.73
2023-03-12T01:21:44.678Z,0.80
2023-03-12T01:26:47.078Z,0.80
2023-03-12T01:31:49.508Z,0.70
2023-03-12T01:36:52.983Z,1.03
2023-03-12T01:41:54.962Z,0.97
2023-03-12T01:46:57.385Z,0.90
2023-03-12T01:52:04.190Z,0.80
2023-03-12T01:57:10.546Z,1.07
2023-03-12T02:02:14.221Z,1.07
2023-03-12T02:07:18.163Z,0.60
2023-03-12T02:12:20.297Z,0.70
2023-03-12T02:17:22.182Z,0.60
2023-03-12T02:22:26.239Z,0.87
2023-03-12T02:27:30.339Z,0.73
2023-03-12T02:32:35.670Z,1.00
2023-03-12T02:37:48.360Z,1.00
2023-03-12T02:42:52.590Z,0.67
2023-03-12T02:47:54.684Z,1.03
2023-03-12T02:52:56.969Z,1.27
2023-03-12T02:58:00.079Z,1.03
2023-03-12T03:03:02.604Z,0.50
2023-03-12T03:08:05.727Z,0.80
2023-03-12T03:13:09.400Z,0.80
2023-03-12T03:18:11.626Z,0.77
2023-03-12T03:23:13.757Z,0.73
2023-03-12T03:28:17.323Z,0.80
2023-03-12T03:33:22.793Z,0.83
2023-03-12T03:38:25.279Z,1.27
2023-03-12T03:43:29.033Z,1.00
2023-03-12T03:48:31.979Z,1.10
2023-03-12T03:53:34.867Z,1.50
2023-03-12T03:58:38.596Z,1.23
2023-03-12T04:03:40.979Z,1.10
2023-03-12T04:08:43.158Z,1.40
2023-03-12T04:13:46.555Z,1.23
2023-03-12T04:18:48.729Z,1.30
2023-03-12T04:23:50.427Z,1.10
2023-03-12T04:28:53.902Z,1.70
2023-03-12T04:33:55.866Z,1.30
2023-03-12T04:39:01.390Z,1.33
2023-03-12T04:44:05.649Z,1.50
2023-03-12T04:49:07.803Z,1.13
2023-03-12T04:54:10.018Z,1.67
2023-03-12T04:59:13.444Z,0.83
2023-03-12T05:04:21.774Z,1.00
2023-03-12T05:09:23.873Z,1.30
2023-03-12T05:14:27.058Z,0.73
2023-03-12T05:19:28.811Z,1.00
2023-03-12T05:24:31.012Z,1.00
2023-03-12T05:29:34.687Z,1.03
2023-03-12T05:34:37.164Z,1.83
2023-03-12T05:39:39.165Z,1.47
2023-03-12T05:44:42.968Z,1.70
2023-03-12T05:49:45.231Z,1.73
2023-03-12T05:54:47.402Z,1.27
2023-03-12T05:59:50.908Z,1.00
2023-03-12T06:04:52.900Z,1.20
2023-03-12T06:09:55.414Z,1.00
2023-03-12T06:14:59.235Z,1.00
2023-03-12T06:20:01.027Z,0.87
2023-03-12T06:25:03.332Z,1.00
2023-03-12T06:30:08.284Z,0.90
2023-03-12T06:35:10.318Z,1.10
2023-03-12T06:40:13.323Z,1.00
2023-03-12T06:45:16.770Z,1.20
2023-03-12T06:50:18.733Z,1.23
2023-03-12T06:55:20.545Z,1.80
2023-03-12T07:00:24.536Z,1.17
2023-03-12T07:05:29.477Z,1.50
2023-03-12T07:10:32.389Z,0.80
2023-03-12T07:15:41.700Z,1.13
2023-03-12T07:20:44.601Z,1.10
2023-03-12T07:25:47.424Z,1.10
2023-03-12T07:30:51.275Z,1.33
2023-03-12T07:35:53.699Z,1.43
2023-03-12T07:40:57.743Z,1.27
2023-03-12T07:46:01.366Z,1.03
2023-03-12T07:51:03.532Z,1.20
2023-03-12T07:56:06.707Z,1.27
2023-03-12T08:01:09.931Z,1.20
2023-03-12T08:06:12.059Z,1.53
2023-03-12T08:11:14.244Z,1.13
2023-03-12T08:16:18.020Z,1.53
2023-03-12T08:21:20.122Z,1.20
2023-03-12T08:26:22.084Z,1.47
2023-03-12T08:31:25.224Z,1.50
2023-03-12T08:36:27.785Z,1.30
2023-03-12T08:41:29.700Z,1.60
2023-03-12T08:46:32.984Z,1.13
2023-03-12T08:51:35.137Z,1.03
2023-03-12T08:56:37.085Z,1.33
2023-03-12T09:01:43.633Z,1.57
2023-03-12T09:06:45.787Z,1.13
2023-03-12T09:11:48.517Z,0.90
2023-03-12T09:16:52.136Z,1.27
2023-03-12T09:21:54.275Z,1.00
2023-03-12T09:26:56.105Z,0.90
2023-03-12T09:32:00.103Z,0.90
2023-03-12T09:37:02.698Z,0.90
2023-03-12T09:42:07.566Z,1.10
2023-03-12T09:47:22.891Z,1.00
2023-03-12T09:52:29.923Z,1.30
2023-03-12T09:57:32.188Z,1.30
2023-03-12T10:02:55.568Z,0.93
2023-03-12T10:08:22.834Z,1.03
2023-03-12T10:13:49.914Z,1.13
2023-03-12T10:19:13.285Z,1.00
2023-03-12T10:24:27.271Z,1.03
2023-03-12T10:29:32.539Z,0.80
2023-03-12T10:34:43.024Z,0.83
2023-03-12T10:39:45.969Z,1.10
2023-03-12T10:44:51.164Z,1.10
2023-03-12T10:49:54.408Z,1.23
2023-03-12T10:54:56.144Z,1.53
2023-03-12T11:00:07.904Z,1.40
2023-03-12T11:05:22.551Z,1.30
2023-03-12T11:10:26.280Z,1.30
2023-03-12T11:15:30.850Z,1.10
2023-03-12T11:20:34.362Z,1.97
2023-03-12T11:25:36.446Z,0.77
2023-03-12T11:30:40.755Z,1.10
2023-03-12T11:35:52.265Z,1.27
2023-03-12T11:41:08.214Z,1.20
2023-03-12T11:46:23.090Z,1.50
2023-03-12T11:51:36.290Z,1.33
2023-03-12T11:56:45.488Z,2.10
2023-03-12T12:01:58.585Z,1.60
2023-03-12T12:07:12.370Z,1.63
2023-03-12T12:12:28.423Z,1.63
2023-03-12T12:17:44.451Z,1.40
2023-03-12T12:23:06.137Z,1.10
2023-03-12T12:28:26.791Z,1.13
2023-03-12T12:33:43.450Z,0.90
2023-03-12T12:38:52.742Z,1.10
2023-03-12T12:44:05.694Z,3.70
2023-03-12T12:49:12.808Z,2.63
2023-03-12T12:54:23.750Z,1.00
2023-03-12T12:59:37.863Z,1.50
2023-03-12T13:04:40.230Z,1.10
2023-03-12T13:09:45.892Z,0.90
2023-03-12T13:15:36.490Z,1.33
2023-03-12T13:20:45.554Z,1.73
2023-03-12T13:25:58.538Z,1.40
2023-03-12T13:31:04.049Z,1.10
2023-03-12T13:36:19.069Z,0.73
2023-03-12T13:41:31.924Z,1.93
2023-03-12T13:46:41.812Z,0.83
2023-03-12T13:51:47.884Z,0.70
2023-03-12T13:56:57.381Z,1.33
2023-03-12T14:02:21.315Z,1.60
2023-03-12T14:07:51.677Z,1.10
2023-03-12T14:13:02.623Z,1.43
2023-03-12T14:18:15.542Z,1.70
2023-03-12T14:23:18.084Z,7.13
2023-03-12T14:28:22.636Z,1.23
2023-03-12T14:33:27.355Z,1.50
2023-03-12T14:38:32.627Z,2.07
2023-03-12T14:43:35.731Z,3.20
2023-03-12T14:48:39.007Z,1.37
2023-03-12T14:53:40.841Z,1.50
2023-03-12T14:58:45.709Z,1.20
2023-03-12T15:03:53.208Z,1.33
2023-03-12T15:08:56.273Z,2.13
2023-03-12T15:14:05.985Z,1.50
2023-03-12T15:19:13.371Z,1.83
2023-03-12T15:24:17.205Z,1.23
2023-03-12T15:29:23.310Z,1.50
2023-03-12T15:34:32.995Z,1.17
2023-03-12T15:39:37.435Z,1.20
2023-03-12T15:44:45.749Z,2.53
2023-03-12T15:49:53.229Z,2.80
2023-03-12T15:55:05.656Z,1.77
2023-03-12T16:00:16.981Z,2.00
2023-03-12T16:05:22.814Z,1.73
2023-03-12T16:10:27.253Z,2.23
2023-03-12T16:15:31.943Z,2.00
2023-03-12T16:20:35.271Z,1.73
2023-03-12T16:25:37.557Z,2.37
2023-03-12T16:30:39.679Z,1.80
2023-03-12T16:35:42.914Z,2.60
2023-03-12T16:40:48.342Z,3.33
2023-03-12T16:45:52.815Z,1.90
2023-03-12T16:50:57.902Z,1.87
2023-03-12T16:56:02.007Z,1.77
2023-03-12T17:01:04.498Z,1.90
2023-03-12T17:06:14.934Z,1.87
2023-03-12T17:11:19.068Z,1.30
2023-03-12T17:16:20.964Z,1.90
2023-03-12T17:21:24.101Z,1.53
2023-03-12T17:26:26.204Z,2.70
2023-03-12T17:31:28.401Z,2.17
2023-03-12T17:36:31.810Z,2.27
2023-03-12T17:41:33.804Z,2.63
2023-03-12T17:46:36.310Z,2.37
2023-03-12T17:51:40.179Z,2.50
2023-03-12T17:56:42.362Z,2.10
2023-03-12T18:01:44.203Z,2.43
2023-03-12T18:06:47.320Z,2.57
2023-03-12T18:11:49.550Z,2.77
2023-03-12T18:16:51.375Z,2.53
2023-03-12T18:21:55.354Z,2.50
2023-03-12T18:26:57.399Z,2.93
2023-03-12T18:31:59.424Z,3.60
2023-03-12T18:37:03.083Z,2.90
2023-03-12T18:42:05.676Z,2.87
2023-03-12T18:47:07.981Z,3.07
2023-03-12T18:52:11.184Z,3.00
2023-03-12T18:57:13.037Z,3.30
2023-03-12T19:02:15.661Z,3.17
2023-03-12T19:07:19.022Z,2.83
2023-03-12T19:12:21.793Z,3.47
2023-03-12T19:17:24.111Z,3.90
2023-03-12T19:22:27.761Z,4.30
2023-03-12T19:27:30.059Z,3.67
2023-03-12T19:32:42.234Z,3.80
2023-03-12T19:37:47.677Z,3.90
2023-03-12T19:42:50.446Z,4.20
2023-03-12T19:47:53.081Z,4.60
2023-03-12T19:52:57.082Z,4.77
2023-03-12T19:58:00.542Z,4.97
2023-03-12T20:03:02.969Z,6.70
2023-03-12T20:08:07.181Z,5.70
2023-03-12T20:13:09.934Z,5.90
2023-03-12T20:18:12.466Z,5.40
2023-03-12T20:23:18.829Z,5.70
2023-03-12T20:28:22.100Z,6.57
2023-03-12T20:33:24.664Z,5.80
2023-03-12T20:38:28.511Z,6.33
2023-03-12T20:43:34.065Z,7.30
2023-03-12T20:48:37.063Z,6.63
2023-03-12T20:53:40.484Z,6.20
2023-03-12T20:58:42.680Z,6.10
2023-03-12T21:03:45.159Z,6.83
2023-03-12T21:08:48.633Z,6.33
2023-03-12T21:13:50.809Z,6.30
2023-03-12T21:18:56.153Z,6.33
2023-03-12T21:24:01.152Z,6.37
2023-03-12T21:29:03.905Z,6.13
2023-03-12T21:34:08.127Z,7.17
2023-03-12T21:39:13.072Z,6.30
2023-03-12T21:44:16.711Z,6.27
2023-03-12T21:49:19.010Z,6.10
2023-03-12T21:54:22.642Z,5.70
2023-03-12T21:59:24.860Z,6.27
2023-03-12T22:04:27.763Z,5.90
2023-03-12T22:09:31.449Z,5.57
2023-03-12T22:14:33.408Z,5.50
2023-03-12T22:19:35.511Z,6.67
2023-03-12T22:24:39.109Z,6.07
2023-03-12T22:29:41.535Z,5.07
2023-03-12T22:34:43.545Z,6.13
2023-03-12T22:39:47.173Z,5.47
2023-03-12T22:44:49.556Z,5.67
2023-03-12T22:49:51.746Z,5.33
2023-03-12T22:54:55.164Z,4.50
2023-03-12T22:59:57.622Z,5.07
2023-03-12T23:05:00.028Z,5.30
2023-03-12T23:10:04.614Z,5.03
2023-03-12T23:15:14.918Z,5.40
2023-03-12T23:20:16.904Z,4.83
2023-03-12T23:25:20.317Z,5.83
2023-03-12T23:30:22.846Z,5.50
2023-03-12T23:35:25.013Z,5.30
2023-03-12T23:40:28.589Z,5.07
2023-03-12T23:45:30.716Z,4.97
2023-03-12T23:50:33.461Z,5.20
2023-03-12T23:55:36.563Z,5.30
